Terminal Aerodrome Forecast
Issued by NWS Sterling, VA

Current Version | Previous Version | Graphics & Text | Print | Product List | Glossary On
Versions: 1 2 3 4 5 6 7 8 9 10 11 12 13 14 15 16 17 18 19 20
000
FTUS41 KLWX 232329
TAFMRB
TAF
KMRB 232329Z 2400/2424 23011KT P6SM SHRA BKN060
     FM240500 19005KT 5SM SHRA OVC060 WS020/22040KT
     FM240900 28006KT 4SM SHRA OVC100 WS020/22040KT
     FM241200 29009KT P6SM BKN250
     FM242100 29012G19KT P6SM FEW070
     FM242300 29009KT P6SM FEW070=

USA.gov is the U.S. government's official web portal to all federal, state and local government web resources and services.